sensor_id;sensor_type;location;lat;lon;timestamp;pressure;altitude;pressure_sealevel;temperature
20733;BMP180;10527;52.124;5.196;2024-03-23T00:52:31;100927.00;;;19.80
20733;BMP180;10527;52.124;5.196;2024-03-23T00:54:58;100909.00;;;19.90
20733;BMP180;10527;52.124;5.196;2024-03-23T00:57:24;100905.00;;;19.90
20733;BMP180;10527;52.124;5.196;2024-03-23T00:59:51;100907.00;;;19.90
20733;BMP180;10527;52.124;5.196;2024-03-23T01:02:17;100903.00;;;19.90
20733;BMP180;10527;52.124;5.196;2024-03-23T01:04:43;100911.00;;;19.90
20733;BMP180;10527;52.124;5.196;2024-03-23T01:07:10;100902.00;;;19.80
20733;BMP180;10527;52.124;5.196;2024-03-23T01:09:36;100897.00;;;19.80
20733;BMP180;10527;52.124;5.196;2024-03-23T01:12:05;100897.00;;;19.80
20733;BMP180;10527;52.124;5.196;2024-03-23T01:14:32;100904.00;;;19.80
20733;BMP180;10527;52.124;5.196;2024-03-23T01:16:58;100890.00;;;19.80
20733;BMP180;10527;52.124;5.196;2024-03-23T01:19:25;100888.00;;;19.80
20733;BMP180;10527;52.124;5.196;2024-03-23T01:21:51;100883.00;;;19.80
20733;BMP180;10527;52.124;5.196;2024-03-23T01:24:18;100880.00;;;19.70
20733;BMP180;10527;52.124;5.196;2024-03-23T01:26:44;100880.00;;;19.70
20733;BMP180;10527;52.124;5.196;2024-03-23T01:29:10;100877.00;;;19.70
20733;BMP180;10527;52.124;5.196;2024-03-23T01:31:37;100865.00;;;19.70
20733;BMP180;10527;52.124;5.196;2024-03-23T01:34:04;100876.00;;;19.70
20733;BMP180;10527;52.124;5.196;2024-03-23T01:36:30;100871.00;;;19.60
20733;BMP180;10527;52.124;5.196;2024-03-23T01:38:57;100863.00;;;19.60
20733;BMP180;10527;52.124;5.196;2024-03-23T01:41:24;100868.00;;;19.60
20733;BMP180;10527;52.124;5.196;2024-03-23T01:43:51;100862.00;;;19.50
20733;BMP180;10527;52.124;5.196;2024-03-23T01:46:18;100860.00;;;19.50
20733;BMP180;10527;52.124;5.196;2024-03-23T01:48:45;100858.00;;;19.50
20733;BMP180;10527;52.124;5.196;2024-03-23T01:51:12;100855.00;;;19.40
20733;BMP180;10527;52.124;5.196;2024-03-23T01:53:39;100856.00;;;19.40
20733;BMP180;10527;52.124;5.196;2024-03-23T01:56:06;100858.00;;;19.40
20733;BMP180;10527;52.124;5.196;2024-03-23T01:58:33;100851.00;;;19.40
20733;BMP180;10527;52.124;5.196;2024-03-23T02:01:00;100850.00;;;19.30
20733;BMP180;10527;52.124;5.196;2024-03-23T02:03:27;100843.00;;;19.30
20733;BMP180;10527;52.124;5.196;2024-03-23T02:05:55;100852.00;;;19.30
20733;BMP180;10527;52.124;5.196;2024-03-23T02:08:22;100848.00;;;19.30
20733;BMP180;10527;52.124;5.196;2024-03-23T02:10:50;100857.00;;;19.20
20733;BMP180;10527;52.124;5.196;2024-03-23T02:13:20;100851.00;;;19.20
20733;BMP180;10527;52.124;5.196;2024-03-23T02:15:46;100855.00;;;19.10
20733;BMP180;10527;52.124;5.196;2024-03-23T02:18:13;100852.00;;;19.10
20733;BMP180;10527;52.124;5.196;2024-03-23T02:20:40;100851.00;;;19.10
20733;BMP180;10527;52.124;5.196;2024-03-23T02:23:13;100843.00;;;19.10
20733;BMP180;10527;52.124;5.196;2024-03-23T02:25:40;100835.00;;;19.10
20733;BMP180;10527;52.124;5.196;2024-03-23T02:28:06;100838.00;;;19.10
20733;BMP180;10527;52.124;5.196;2024-03-23T02:30:33;100829.00;;;19.10
20733;BMP180;10527;52.124;5.196;2024-03-23T02:32:59;100829.00;;;19.00
20733;BMP180;10527;52.124;5.196;2024-03-23T02:35:25;100817.00;;;19.00
20733;BMP180;10527;52.124;5.196;2024-03-23T02:37:52;100819.00;;;19.00
20733;BMP180;10527;52.124;5.196;2024-03-23T02:40:20;100823.00;;;19.00
20733;BMP180;10527;52.124;5.196;2024-03-23T02:42:47;100822.00;;;19.00
20733;BMP180;10527;52.124;5.196;2024-03-23T02:45:13;100821.00;;;19.00
20733;BMP180;10527;52.124;5.196;2024-03-23T02:47:40;100816.00;;;18.90
20733;BMP180;10527;52.124;5.196;2024-03-23T02:50:06;100825.00;;;18.90
20733;BMP180;10527;52.124;5.196;2024-03-23T02:52:33;100823.00;;;18.90
20733;BMP180;10527;52.124;5.196;2024-03-23T02:55:00;100816.00;;;18.90
20733;BMP180;10527;52.124;5.196;2024-03-23T02:57:28;100820.00;;;18.90
20733;BMP180;10527;52.124;5.196;2024-03-23T02:59:54;100824.00;;;18.90
20733;BMP180;10527;52.124;5.196;2024-03-23T03:02:21;100815.00;;;18.80
20733;BMP180;10527;52.124;5.196;2024-03-23T03:04:48;100819.00;;;18.80
20733;BMP180;10527;52.124;5.196;2024-03-23T03:07:15;100818.00;;;18.80
20733;BMP180;10527;52.124;5.196;2024-03-23T03:09:41;100816.00;;;18.80
20733;BMP180;10527;52.124;5.196;2024-03-23T03:12:08;100820.00;;;18.80
20733;BMP180;10527;52.124;5.196;2024-03-23T03:14:34;100816.00;;;18.80
20733;BMP180;10527;52.124;5.196;2024-03-23T03:17:02;100817.00;;;18.80
20733;BMP180;10527;52.124;5.196;2024-03-23T03:19:28;100806.00;;;18.80
20733;BMP180;10527;52.124;5.196;2024-03-23T03:21:54;100813.00;;;18.80
20733;BMP180;10527;52.124;5.196;2024-03-23T03:24:21;100820.00;;;18.80
20733;BMP180;10527;52.124;5.196;2024-03-23T03:26:48;100811.00;;;18.70
20733;BMP180;10527;52.124;5.196;2024-03-23T03:29:16;100809.00;;;18.70
20733;BMP180;10527;52.124;5.196;2024-03-23T03:31:45;100807.00;;;18.70
20733;BMP180;10527;52.124;5.196;2024-03-23T03:34:12;100801.00;;;18.70
20733;BMP180;10527;52.124;5.196;2024-03-23T03:36:38;100799.00;;;18.60
20733;BMP180;10527;52.124;5.196;2024-03-23T03:39:06;100802.00;;;18.60
20733;BMP180;10527;52.124;5.196;2024-03-23T03:41:33;100800.00;;;18.60
20733;BMP180;10527;52.124;5.196;2024-03-23T03:43:59;100799.00;;;18.60
20733;BMP180;10527;52.124;5.196;2024-03-23T03:46:28;100800.00;;;18.50
20733;BMP180;10527;52.124;5.196;2024-03-23T03:48:55;100797.00;;;18.50
20733;BMP180;10527;52.124;5.196;2024-03-23T03:51:21;100799.00;;;18.50
20733;BMP180;10527;52.124;5.196;2024-03-23T03:53:47;100790.00;;;18.50
20733;BMP180;10527;52.124;5.196;2024-03-23T03:56:15;100787.00;;;18.40
20733;BMP180;10527;52.124;5.196;2024-03-23T03:58:41;100785.00;;;18.40
20733;BMP180;10527;52.124;5.196;2024-03-23T04:01:08;100788.00;;;18.30
20733;BMP180;10527;52.124;5.196;2024-03-23T04:03:34;100788.00;;;18.30
20733;BMP180;10527;52.124;5.196;2024-03-23T04:06:01;100773.00;;;18.30
20733;BMP180;10527;52.124;5.196;2024-03-23T04:08:27;100773.00;;;18.30
20733;BMP180;10527;52.124;5.196;2024-03-23T04:10:53;100768.00;;;18.30
20733;BMP180;10527;52.124;5.196;2024-03-23T04:13:21;100768.00;;;18.30
20733;BMP180;10527;52.124;5.196;2024-03-23T04:15:47;100770.00;;;18.20
20733;BMP180;10527;52.124;5.196;2024-03-23T04:18:13;100769.00;;;18.20
20733;BMP180;10527;52.124;5.196;2024-03-23T04:20:40;100773.00;;;18.20
20733;BMP180;10527;52.124;5.196;2024-03-23T04:23:06;100769.00;;;18.10
20733;BMP180;10527;52.124;5.196;2024-03-23T04:25:33;100770.00;;;18.10
20733;BMP180;10527;52.124;5.196;2024-03-23T04:28:00;100767.00;;;18.10
20733;BMP180;10527;52.124;5.196;2024-03-23T04:30:26;100760.00;;;18.00
20733;BMP180;10527;52.124;5.196;2024-03-23T04:32:55;100766.00;;;18.00
20733;BMP180;10527;52.124;5.196;2024-03-23T04:35:23;100767.00;;;18.00
20733;BMP180;10527;52.124;5.196;2024-03-23T04:37:51;100764.00;;;17.90
20733;BMP180;10527;52.124;5.196;2024-03-23T04:40:25;100774.00;;;17.90
20733;BMP180;10527;52.124;5.196;2024-03-23T04:42:52;100777.00;;;17.80
20733;BMP180;10527;52.124;5.196;2024-03-23T04:45:18;100777.00;;;17.80
20733;BMP180;10527;52.124;5.196;2024-03-23T04:47:45;100771.00;;;17.70
20733;BMP180;10527;52.124;5.196;2024-03-23T04:50:11;100769.00;;;17.70
20733;BMP180;10527;52.124;5.196;2024-03-23T04:52:37;100771.00;;;17.70
20733;BMP180;10527;52.124;5.196;2024-03-23T04:55:04;100769.00;;;17.70
20733;BMP180;10527;52.124;5.196;2024-03-23T04:57:31;100764.00;;;17.60
20733;BMP180;10527;52.124;5.196;2024-03-23T04:59:57;100760.00;;;17.60
20733;BMP180;10527;52.124;5.196;2024-03-23T05:02:24;100766.00;;;17.60
20733;BMP180;10527;52.124;5.196;2024-03-23T05:04:51;100765.00;;;17.60
20733;BMP180;10527;52.124;5.196;2024-03-23T05:07:18;100766.00;;;17.60
20733;BMP180;10527;52.124;5.196;2024-03-23T05:09:44;100769.00;;;17.60
20733;BMP180;10527;52.124;5.196;2024-03-23T05:12:11;100766.00;;;17.60
20733;BMP180;10527;52.124;5.196;2024-03-23T05:14:37;100766.00;;;17.60
20733;BMP180;10527;52.124;5.196;2024-03-23T05:17:04;100766.00;;;17.60
20733;BMP180;10527;52.124;5.196;2024-03-23T05:19:30;100763.00;;;17.60
20733;BMP180;10527;52.124;5.196;2024-03-23T05:21:57;100764.00;;;17.60
20733;BMP180;10527;52.124;5.196;2024-03-23T05:24:23;100763.00;;;17.60
20733;BMP180;10527;52.124;5.196;2024-03-23T05:26:49;100764.00;;;17.60
20733;BMP180;10527;52.124;5.196;2024-03-23T05:29:16;100772.00;;;17.60
20733;BMP180;10527;52.124;5.196;2024-03-23T05:31:43;100770.00;;;17.60
20733;BMP180;10527;52.124;5.196;2024-03-23T05:34:09;100773.00;;;17.60
20733;BMP180;10527;52.124;5.196;2024-03-23T05:36:36;100770.00;;;17.50
20733;BMP180;10527;52.124;5.196;2024-03-23T05:39:03;100775.00;;;17.50
20733;BMP180;10527;52.124;5.196;2024-03-23T05:41:29;100773.00;;;17.50
20733;BMP180;10527;52.124;5.196;2024-03-23T05:43:56;100767.00;;;17.50
20733;BMP180;10527;52.124;5.196;2024-03-23T05:46:22;100762.00;;;17.50
20733;BMP180;10527;52.124;5.196;2024-03-23T05:48:50;100757.00;;;17.50
20733;BMP180;10527;52.124;5.196;2024-03-23T05:51:16;100759.00;;;17.50
20733;BMP180;10527;52.124;5.196;2024-03-23T05:53:43;100761.00;;;17.50
20733;BMP180;10527;52.124;5.196;2024-03-23T05:56:09;100758.00;;;17.50
20733;BMP180;10527;52.124;5.196;2024-03-23T05:58:36;100760.00;;;17.50
20733;BMP180;10527;52.124;5.196;2024-03-23T06:01:02;100758.00;;;17.50
20733;BMP180;10527;52.124;5.196;2024-03-23T06:03:29;100762.00;;;17.50
20733;BMP180;10527;52.124;5.196;2024-03-23T06:05:56;100763.00;;;17.50
20733;BMP180;10527;52.124;5.196;2024-03-23T06:08:24;100760.00;;;17.50
20733;BMP180;10527;52.124;5.196;2024-03-23T06:10:50;100756.00;;;17.50
20733;BMP180;10527;52.124;5.196;2024-03-23T06:13:17;100759.00;;;17.40
20733;BMP180;10527;52.124;5.196;2024-03-23T06:15:47;100762.00;;;17.40
20733;BMP180;10527;52.124;5.196;2024-03-23T06:18:15;100766.00;;;17.40
20733;BMP180;10527;52.124;5.196;2024-03-23T06:20:41;100769.00;;;17.40
20733;BMP180;10527;52.124;5.196;2024-03-23T06:23:08;100757.00;;;17.40
20733;BMP180;10527;52.124;5.196;2024-03-23T06:25:34;100766.00;;;17.30
20733;BMP180;10527;52.124;5.196;2024-03-23T06:28:00;100758.00;;;17.30
20733;BMP180;10527;52.124;5.196;2024-03-23T06:30:29;100765.00;;;17.30
20733;BMP180;10527;52.124;5.196;2024-03-23T06:32:55;100764.00;;;17.30
20733;BMP180;10527;52.124;5.196;2024-03-23T06:35:22;100756.00;;;17.30
20733;BMP180;10527;52.124;5.196;2024-03-23T06:37:48;100750.00;;;17.30
20733;BMP180;10527;52.124;5.196;2024-03-23T06:40:15;100753.00;;;17.40
20733;BMP180;10527;52.124;5.196;2024-03-23T06:42:41;100752.00;;;17.40
20733;BMP180;10527;52.124;5.196;2024-03-23T06:45:07;100761.00;;;17.40
20733;BMP180;10527;52.124;5.196;2024-03-23T06:47:34;100756.00;;;17.40
20733;BMP180;10527;52.124;5.196;2024-03-23T06:50:02;100757.00;;;17.40
20733;BMP180;10527;52.124;5.196;2024-03-23T06:52:29;100748.00;;;17.40
20733;BMP180;10527;52.124;5.196;2024-03-23T06:54:56;100757.00;;;17.40
20733;BMP180;10527;52.124;5.196;2024-03-23T06:57:23;100763.00;;;17.40
20733;BMP180;10527;52.124;5.196;2024-03-23T06:59:49;100755.00;;;17.40
20733;BMP180;10527;52.124;5.196;2024-03-23T07:02:16;100746.00;;;17.40
20733;BMP180;10527;52.124;5.196;2024-03-23T07:04:42;100758.00;;;17.50
20733;BMP180;10527;52.124;5.196;2024-03-23T07:07:10;100748.00;;;17.50
20733;BMP180;10527;52.124;5.196;2024-03-23T07:09:51;100747.00;;;17.50
20733;BMP180;10527;52.124;5.196;2024-03-23T07:12:18;100747.00;;;17.50
20733;BMP180;10527;52.124;5.196;2024-03-23T07:14:45;100749.00;;;17.60
20733;BMP180;10527;52.124;5.196;2024-03-23T07:17:12;100757.00;;;17.60
20733;BMP180;10527;52.124;5.196;2024-03-23T07:19:38;100778.00;;;17.60
20733;BMP180;10527;52.124;5.196;2024-03-23T07:22:05;100766.00;;;17.70
20733;BMP180;10527;52.124;5.196;2024-03-23T07:24:31;100766.00;;;17.70
20733;BMP180;10527;52.124;5.196;2024-03-23T07:26:58;100766.00;;;17.80
20733;BMP180;10527;52.124;5.196;2024-03-23T07:29:25;100763.00;;;17.80
20733;BMP180;10527;52.124;5.196;2024-03-23T07:31:51;100757.00;;;17.80
20733;BMP180;10527;52.124;5.196;2024-03-23T07:34:18;100767.00;;;17.90
20733;BMP180;10527;52.124;5.196;2024-03-23T07:36:44;100772.00;;;17.90
20733;BMP180;10527;52.124;5.196;2024-03-23T07:39:11;100759.00;;;17.90
20733;BMP180;10527;52.124;5.196;2024-03-23T07:41:37;100782.00;;;17.90
20733;BMP180;10527;52.124;5.196;2024-03-23T07:44:04;100763.00;;;18.00
20733;BMP180;10527;52.124;5.196;2024-03-23T07:46:30;100764.00;;;18.00
20733;BMP180;10527;52.124;5.196;2024-03-23T07:48:56;100762.00;;;18.00
20733;BMP180;10527;52.124;5.196;2024-03-23T07:51:24;100763.00;;;18.10
20733;BMP180;10527;52.124;5.196;2024-03-23T07:53:51;100768.00;;;18.10
20733;BMP180;10527;52.124;5.196;2024-03-23T07:56:19;100757.00;;;18.10
20733;BMP180;10527;52.124;5.196;2024-03-23T07:58:46;100761.00;;;18.10
20733;BMP180;10527;52.124;5.196;2024-03-23T08:01:15;100749.00;;;18.20
20733;BMP180;10527;52.124;5.196;2024-03-23T08:03:43;100768.00;;;18.30
20733;BMP180;10527;52.124;5.196;2024-03-23T08:06:17;100756.00;;;18.30
20733;BMP180;10527;52.124;5.196;2024-03-23T08:08:47;100767.00;;;18.30
20733;BMP180;10527;52.124;5.196;2024-03-23T08:11:14;100758.00;;;18.40
20733;BMP180;10527;52.124;5.196;2024-03-23T08:13:41;100761.00;;;18.40
20733;BMP180;10527;52.124;5.196;2024-03-23T08:16:08;100759.00;;;18.40
20733;BMP180;10527;52.124;5.196;2024-03-23T08:18:35;100755.00;;;18.50
20733;BMP180;10527;52.124;5.196;2024-03-23T08:21:05;100758.00;;;18.60
20733;BMP180;10527;52.124;5.196;2024-03-23T08:23:33;100747.00;;;18.80
20733;BMP180;10527;52.124;5.196;2024-03-23T08:26:21;100766.00;;;19.10
20733;BMP180;10527;52.124;5.196;2024-03-23T08:28:55;100753.00;;;19.40
20733;BMP180;10527;52.124;5.196;2024-03-23T08:31:22;100750.00;;;19.50
20733;BMP180;10527;52.124;5.196;2024-03-23T08:33:48;100754.00;;;19.70
20733;BMP180;10527;52.124;5.196;2024-03-23T08:36:15;100759.00;;;19.90
20733;BMP180;10527;52.124;5.196;2024-03-23T08:38:41;100756.00;;;20.20
20733;BMP180;10527;52.124;5.196;2024-03-23T08:41:11;100765.00;;;20.50
20733;BMP180;10527;52.124;5.196;2024-03-23T08:43:42;100763.00;;;20.70
20733;BMP180;10527;52.124;5.196;2024-03-23T08:46:12;100770.00;;;21.00
20733;BMP180;10527;52.124;5.196;2024-03-23T08:48:41;100766.00;;;21.20
20733;BMP180;10527;52.124;5.196;2024-03-23T08:51:10;100766.00;;;21.40
20733;BMP180;10527;52.124;5.196;2024-03-23T08:53:37;100761.00;;;21.60
20733;BMP180;10527;52.124;5.196;2024-03-23T08:56:05;100752.00;;;21.70
20733;BMP180;10527;52.124;5.196;2024-03-23T08:58:36;100756.00;;;21.90
20733;BMP180;10527;52.124;5.196;2024-03-23T09:03:32;100746.00;;;22.20
20733;BMP180;10527;52.124;5.196;2024-03-23T09:05:58;100777.00;;;22.10
20733;BMP180;10527;52.124;5.196;2024-03-23T09:08:25;100777.00;;;22.00
20733;BMP180;10527;52.124;5.196;2024-03-23T09:10:52;100760.00;;;21.70
20733;BMP180;10527;52.124;5.196;2024-03-23T09:13:18;100760.00;;;21.40
20733;BMP180;10527;52.124;5.196;2024-03-23T09:15:52;100752.00;;;21.10
20733;BMP180;10527;52.124;5.196;2024-03-23T09:18:23;100747.00;;;20.70
20733;BMP180;10527;52.124;5.196;2024-03-23T09:20:50;100750.00;;;20.50
20733;BMP180;10527;52.124;5.196;2024-03-23T09:23:16;100749.00;;;20.20
20733;BMP180;10527;52.124;5.196;2024-03-23T09:25:42;100750.00;;;20.00
20733;BMP180;10527;52.124;5.196;2024-03-23T09:28:09;100758.00;;;19.80
20733;BMP180;10527;52.124;5.196;2024-03-23T09:30:36;100786.00;;;19.70
20733;BMP180;10527;52.124;5.196;2024-03-23T09:33:11;100759.00;;;19.50
20733;BMP180;10527;52.124;5.196;2024-03-23T09:35:39;100758.00;;;19.20
20733;BMP180;10527;52.124;5.196;2024-03-23T09:38:06;100758.00;;;19.00
20733;BMP180;10527;52.124;5.196;2024-03-23T09:40:34;100750.00;;;19.00
20733;BMP180;10527;52.124;5.196;2024-03-23T09:43:00;100753.00;;;19.00
20733;BMP180;10527;52.124;5.196;2024-03-23T09:45:28;100751.00;;;19.10
20733;BMP180;10527;52.124;5.196;2024-03-23T09:47:58;100743.00;;;19.30
20733;BMP180;10527;52.124;5.196;2024-03-23T09:50:24;100741.00;;;19.40
20733;BMP180;10527;52.124;5.196;2024-03-23T09:52:51;100746.00;;;19.60
20733;BMP180;10527;52.124;5.196;2024-03-23T09:55:17;100744.00;;;19.70
20733;BMP180;10527;52.124;5.196;2024-03-23T09:57:44;100731.00;;;19.90
20733;BMP180;10527;52.124;5.196;2024-03-23T10:00:10;100745.00;;;20.10
20733;BMP180;10527;52.124;5.196;2024-03-23T10:02:38;100754.00;;;20.30
20733;BMP180;10527;52.124;5.196;2024-03-23T10:05:08;100750.00;;;20.40
20733;BMP180;10527;52.124;5.196;2024-03-23T10:07:45;100747.00;;;20.40
20733;BMP180;10527;52.124;5.196;2024-03-23T10:10:12;100762.00;;;20.40
20733;BMP180;10527;52.124;5.196;2024-03-23T10:12:47;100747.00;;;20.30
20733;BMP180;10527;52.124;5.196;2024-03-23T10:15:26;100745.00;;;20.30
20733;BMP180;10527;52.124;5.196;2024-03-23T10:17:52;100739.00;;;20.20
20733;BMP180;10527;52.124;5.196;2024-03-23T10:20:21;100735.00;;;20.20
20733;BMP180;10527;52.124;5.196;2024-03-23T10:22:50;100743.00;;;20.10
20733;BMP180;10527;52.124;5.196;2024-03-23T10:25:23;100756.00;;;20.10
20733;BMP180;10527;52.124;5.196;2024-03-23T10:28:00;100732.00;;;20.10
20733;BMP180;10527;52.124;5.196;2024-03-23T10:30:27;100733.00;;;20.00
20733;BMP180;10527;52.124;5.196;2024-03-23T10:33:12;100737.00;;;20.10
20733;BMP180;10527;52.124;5.196;2024-03-23T10:35:39;100738.00;;;20.10
20733;BMP180;10527;52.124;5.196;2024-03-23T10:38:08;100764.00;;;20.10
20733;BMP180;10527;52.124;5.196;2024-03-23T10:40:35;100767.00;;;20.10
20733;BMP180;10527;52.124;5.196;2024-03-23T10:43:03;100756.00;;;19.90
20733;BMP180;10527;52.124;5.196;2024-03-23T10:45:31;100750.00;;;19.70
20733;BMP180;10527;52.124;5.196;2024-03-23T10:47:57;100761.00;;;19.60
20733;BMP180;10527;52.124;5.196;2024-03-23T10:50:24;100747.00;;;19.40
20733;BMP180;10527;52.124;5.196;2024-03-23T10:52:53;100729.00;;;19.30
20733;BMP180;10527;52.124;5.196;2024-03-23T10:55:23;100741.00;;;19.20
20733;BMP180;10527;52.124;5.196;2024-03-23T10:57:57;100750.00;;;19.30
20733;BMP180;10527;52.124;5.196;2024-03-23T11:00:25;100729.00;;;19.40
20733;BMP180;10527;52.124;5.196;2024-03-23T11:02:52;100725.00;;;19.50
20733;BMP180;10527;52.124;5.196;2024-03-23T11:05:28;100728.00;;;19.60
20733;BMP180;10527;52.124;5.196;2024-03-23T11:07:55;100744.00;;;19.60
20733;BMP180;10527;52.124;5.196;2024-03-23T11:10:31;100738.00;;;19.60
20733;BMP180;10527;52.124;5.196;2024-03-23T11:13:21;100738.00;;;19.60
20733;BMP180;10527;52.124;5.196;2024-03-23T11:15:47;100747.00;;;19.50
20733;BMP180;10527;52.124;5.196;2024-03-23T11:18:21;100733.00;;;19.50
20733;BMP180;10527;52.124;5.196;2024-03-23T11:20:48;100736.00;;;19.50
20733;BMP180;10527;52.124;5.196;2024-03-23T11:23:30;100736.00;;;19.50
20733;BMP180;10527;52.124;5.196;2024-03-23T11:25:56;100725.00;;;19.60
20733;BMP180;10527;52.124;5.196;2024-03-23T11:28:22;100736.00;;;19.60
20733;BMP180;10527;52.124;5.196;2024-03-23T11:30:49;100722.00;;;19.70
20733;BMP180;10527;52.124;5.196;2024-03-23T11:33:16;100730.00;;;19.80
20733;BMP180;10527;52.124;5.196;2024-03-23T11:35:42;100742.00;;;19.80
20733;BMP180;10527;52.124;5.196;2024-03-23T11:38:14;100738.00;;;19.90
20733;BMP180;10527;52.124;5.196;2024-03-23T11:40:42;100726.00;;;19.90
20733;BMP180;10527;52.124;5.196;2024-03-23T11:43:13;100718.00;;;19.90
20733;BMP180;10527;52.124;5.196;2024-03-23T11:45:44;100730.00;;;19.80
20733;BMP180;10527;52.124;5.196;2024-03-23T11:48:16;100736.00;;;19.80
20733;BMP180;10527;52.124;5.196;2024-03-23T11:50:47;100722.00;;;19.70
20733;BMP180;10527;52.124;5.196;2024-03-23T11:55:51;100730.00;;;19.70
20733;BMP180;10527;52.124;5.196;2024-03-23T11:58:22;100714.00;;;19.60
20733;BMP180;10527;52.124;5.196;2024-03-23T12:00:58;100719.00;;;19.60
20733;BMP180;10527;52.124;5.196;2024-03-23T12:03:25;100716.00;;;19.60
20733;BMP180;10527;52.124;5.196;2024-03-23T12:05:55;100725.00;;;19.70
20733;BMP180;10527;52.124;5.196;2024-03-23T12:13:34;100702.00;;;19.90
20733;BMP180;10527;52.124;5.196;2024-03-23T12:18:41;100696.00;;;20.10
20733;BMP180;10527;52.124;5.196;2024-03-23T12:21:08;100708.00;;;20.20
20733;BMP180;10527;52.124;5.196;2024-03-23T12:23:35;100703.00;;;20.20
20733;BMP180;10527;52.124;5.196;2024-03-23T12:26:02;100696.00;;;20.20
20733;BMP180;10527;52.124;5.196;2024-03-23T12:28:29;100696.00;;;20.20
20733;BMP180;10527;52.124;5.196;2024-03-23T12:30:55;100682.00;;;20.20
20733;BMP180;10527;52.124;5.196;2024-03-23T12:33:21;100669.00;;;20.30
20733;BMP180;10527;52.124;5.196;2024-03-23T12:35:49;100667.00;;;20.30
20733;BMP180;10527;52.124;5.196;2024-03-23T12:38:16;100672.00;;;20.40
20733;BMP180;10527;52.124;5.196;2024-03-23T12:40:47;100689.00;;;20.40
20733;BMP180;10527;52.124;5.196;2024-03-23T12:43:16;100675.00;;;20.40
20733;BMP180;10527;52.124;5.196;2024-03-23T12:45:47;100679.00;;;20.30
20733;BMP180;10527;52.124;5.196;2024-03-23T12:48:13;100681.00;;;20.30
20733;BMP180;10527;52.124;5.196;2024-03-23T12:50:40;100673.00;;;20.20
20733;BMP180;10527;52.124;5.196;2024-03-23T12:53:07;100674.00;;;20.10
20733;BMP180;10527;52.124;5.196;2024-03-23T12:55:37;100677.00;;;20.10
20733;BMP180;10527;52.124;5.196;2024-03-23T12:58:04;100679.00;;;20.00
20733;BMP180;10527;52.124;5.196;2024-03-23T13:00:31;100670.00;;;20.00
20733;BMP180;10527;52.124;5.196;2024-03-23T13:02:57;100670.00;;;19.90
20733;BMP180;10527;52.124;5.196;2024-03-23T13:05:24;100673.00;;;20.00
20733;BMP180;10527;52.124;5.196;2024-03-23T13:07:50;100682.00;;;20.00
20733;BMP180;10527;52.124;5.196;2024-03-23T13:10:16;100686.00;;;20.00
20733;BMP180;10527;52.124;5.196;2024-03-23T13:12:43;100732.00;;;19.90
20733;BMP180;10527;52.124;5.196;2024-03-23T13:15:09;100719.00;;;19.70
20733;BMP180;10527;52.124;5.196;2024-03-23T13:17:36;100715.00;;;19.50
20733;BMP180;10527;52.124;5.196;2024-03-23T13:20:02;100707.00;;;19.30
20733;BMP180;10527;52.124;5.196;2024-03-23T13:22:30;100683.00;;;19.20
20733;BMP180;10527;52.124;5.196;2024-03-23T13:24:56;100693.00;;;19.10
20733;BMP180;10527;52.124;5.196;2024-03-23T13:27:22;100693.00;;;19.00
20733;BMP180;10527;52.124;5.196;2024-03-23T13:29:50;100674.00;;;19.00
20733;BMP180;10527;52.124;5.196;2024-03-23T13:32:17;100680.00;;;19.00
20733;BMP180;10527;52.124;5.196;2024-03-23T13:34:43;100675.00;;;19.10
20733;BMP180;10527;52.124;5.196;2024-03-23T13:37:09;100678.00;;;19.10
20733;BMP180;10527;52.124;5.196;2024-03-23T13:39:36;100675.00;;;19.10
20733;BMP180;10527;52.124;5.196;2024-03-23T13:42:02;100671.00;;;19.10
20733;BMP180;10527;52.124;5.196;2024-03-23T13:44:29;100673.00;;;19.10
20733;BMP180;10527;52.124;5.196;2024-03-23T13:46:56;100661.00;;;19.10
20733;BMP180;10527;52.124;5.196;2024-03-23T13:49:30;100662.00;;;19.20
20733;BMP180;10527;52.124;5.196;2024-03-23T13:51:57;100658.00;;;19.20
20733;BMP180;10527;52.124;5.196;2024-03-23T13:54:25;100670.00;;;19.20
20733;BMP180;10527;52.124;5.196;2024-03-23T13:56:53;100663.00;;;19.20
20733;BMP180;10527;52.124;5.196;2024-03-23T13:59:20;100651.00;;;19.30
20733;BMP180;10527;52.124;5.196;2024-03-23T14:01:49;100651.00;;;19.30
20733;BMP180;10527;52.124;5.196;2024-03-23T14:04:17;100650.00;;;19.40
20733;BMP180;10527;52.124;5.196;2024-03-23T14:06:45;100655.00;;;19.50
20733;BMP180;10527;52.124;5.196;2024-03-23T14:09:15;100631.00;;;19.60
20733;BMP180;10527;52.124;5.196;2024-03-23T14:11:47;100638.00;;;19.70
20733;BMP180;10527;52.124;5.196;2024-03-23T14:14:13;100635.00;;;19.70
20733;BMP180;10527;52.124;5.196;2024-03-23T14:16:43;100627.00;;;19.80
20733;BMP180;10527;52.124;5.196;2024-03-23T14:19:10;100622.00;;;19.90
20733;BMP180;10527;52.124;5.196;2024-03-23T14:21:36;100617.00;;;20.00
20733;BMP180;10527;52.124;5.196;2024-03-23T14:24:03;100626.00;;;20.10
20733;BMP180;10527;52.124;5.196;2024-03-23T14:26:30;100624.00;;;20.10
20733;BMP180;10527;52.124;5.196;2024-03-23T14:28:56;100622.00;;;20.10
20733;BMP180;10527;52.124;5.196;2024-03-23T14:31:23;100620.00;;;20.20
20733;BMP180;10527;52.124;5.196;2024-03-23T14:33:49;100617.00;;;20.20
20733;BMP180;10527;52.124;5.196;2024-03-23T14:36:17;100613.00;;;20.30
20733;BMP180;10527;52.124;5.196;2024-03-23T14:38:48;100610.00;;;20.30
20733;BMP180;10527;52.124;5.196;2024-03-23T14:41:14;100615.00;;;20.30
20733;BMP180;10527;52.124;5.196;2024-03-23T14:43:41;100621.00;;;20.30
20733;BMP180;10527;52.124;5.196;2024-03-23T14:48:36;100613.00;;;20.20
20733;BMP180;10527;52.124;5.196;2024-03-23T14:51:03;100605.00;;;20.20
20733;BMP180;10527;52.124;5.196;2024-03-23T14:53:35;100618.00;;;20.20
20733;BMP180;10527;52.124;5.196;2024-03-23T14:56:02;100606.00;;;20.30
20733;BMP180;10527;52.124;5.196;2024-03-23T14:58:31;100626.00;;;20.30
20733;BMP180;10527;52.124;5.196;2024-03-23T15:01:05;100613.00;;;20.30
20733;BMP180;10527;52.124;5.196;2024-03-23T15:03:36;100616.00;;;20.20
20733;BMP180;10527;52.124;5.196;2024-03-23T15:06:05;100637.00;;;20.20